sensor_id;sensor_type;location;lat;lon;timestamp;P1;durP1;ratioP1;P2;durP2;ratioP2
80578;SDS011;69939;52.402;6.608;2023-08-06T00:03:49;5.55;;;3.85;;
80578;SDS011;69939;52.402;6.608;2023-08-06T00:06:18;4.47;;;3.33;;
80578;SDS011;69939;52.402;6.608;2023-08-06T00:08:47;6.10;;;3.92;;
80578;SDS011;69939;52.402;6.608;2023-08-06T00:11:16;5.82;;;3.25;;
80578;SDS011;69939;52.402;6.608;2023-08-06T00:16:15;4.75;;;3.40;;
80578;SDS011;69939;52.402;6.608;2023-08-06T00:18:44;5.68;;;3.85;;
80578;SDS011;69939;52.402;6.608;2023-08-06T00:21:16;5.20;;;3.53;;
80578;SDS011;69939;52.402;6.608;2023-08-06T00:23:45;5.55;;;3.67;;
80578;SDS011;69939;52.402;6.608;2023-08-06T00:26:15;5.70;;;3.38;;
80578;SDS011;69939;52.402;6.608;2023-08-06T00:28:47;4.75;;;3.92;;
80578;SDS011;69939;52.402;6.608;2023-08-06T00:31:17;4.68;;;3.30;;
80578;SDS011;69939;52.402;6.608;2023-08-06T00:33:46;5.50;;;4.05;;
80578;SDS011;69939;52.402;6.608;2023-08-06T00:38:47;4.93;;;3.72;;
80578;SDS011;69939;52.402;6.608;2023-08-06T00:43:46;4.82;;;4.00;;
80578;SDS011;69939;52.402;6.608;2023-08-06T00:46:15;7.03;;;4.03;;
80578;SDS011;69939;52.402;6.608;2023-08-06T00:48:45;8.35;;;3.88;;
80578;SDS011;69939;52.402;6.608;2023-08-06T00:51:15;4.80;;;3.72;;
80578;SDS011;69939;52.402;6.608;2023-08-06T00:53:47;8.85;;;4.15;;
80578;SDS011;69939;52.402;6.608;2023-08-06T00:56:18;5.18;;;4.00;;
80578;SDS011;69939;52.402;6.608;2023-08-06T00:58:48;6.45;;;4.32;;
80578;SDS011;69939;52.402;6.608;2023-08-06T01:01:17;5.75;;;4.28;;
80578;SDS011;69939;52.402;6.608;2023-08-06T01:06:16;3.10;;;2.13;;
80578;SDS011;69939;52.402;6.608;2023-08-06T01:09:12;4.07;;;3.15;;
80578;SDS011;69939;52.402;6.608;2023-08-06T01:12:03;4.72;;;4.22;;
80578;SDS011;69939;52.402;6.608;2023-08-06T01:14:50;4.43;;;3.50;;
80578;SDS011;69939;52.402;6.608;2023-08-06T01:17:31;4.95;;;3.53;;
80578;SDS011;69939;52.402;6.608;2023-08-06T01:20:02;5.78;;;3.25;;
80578;SDS011;69939;52.402;6.608;2023-08-06T01:22:36;6.38;;;3.92;;
80578;SDS011;69939;52.402;6.608;2023-08-06T01:25:05;4.38;;;3.10;;
80578;SDS011;69939;52.402;6.608;2023-08-06T01:27:38;4.60;;;3.88;;
80578;SDS011;69939;52.402;6.608;2023-08-06T01:30:17;5.35;;;3.97;;
80578;SDS011;69939;52.402;6.608;2023-08-06T01:32:56;7.75;;;3.85;;
80578;SDS011;69939;52.402;6.608;2023-08-06T01:35:31;5.38;;;3.95;;
80578;SDS011;69939;52.402;6.608;2023-08-06T01:38:04;4.87;;;3.33;;
80578;SDS011;69939;52.402;6.608;2023-08-06T01:40:34;5.47;;;3.63;;
80578;SDS011;69939;52.402;6.608;2023-08-06T01:43:03;4.95;;;3.65;;
80578;SDS011;69939;52.402;6.608;2023-08-06T01:48:02;4.10;;;3.30;;
80578;SDS011;69939;52.402;6.608;2023-08-06T01:50:32;4.72;;;3.38;;
80578;SDS011;69939;52.402;6.608;2023-08-06T01:53:01;5.72;;;3.60;;
80578;SDS011;69939;52.402;6.608;2023-08-06T01:55:33;4.22;;;3.22;;
80578;SDS011;69939;52.402;6.608;2023-08-06T01:58:03;4.32;;;3.20;;
80578;SDS011;69939;52.402;6.608;2023-08-06T02:00:32;4.40;;;3.20;;
80578;SDS011;69939;52.402;6.608;2023-08-06T02:03:02;4.32;;;3.17;;
80578;SDS011;69939;52.402;6.608;2023-08-06T02:05:31;5.57;;;3.38;;
80578;SDS011;69939;52.402;6.608;2023-08-06T02:08:00;5.43;;;3.83;;
80578;SDS011;69939;52.402;6.608;2023-08-06T02:13:01;5.90;;;3.28;;
80578;SDS011;69939;52.402;6.608;2023-08-06T02:15:30;4.45;;;2.92;;
80578;SDS011;69939;52.402;6.608;2023-08-06T02:18:01;5.22;;;3.50;;
80578;SDS011;69939;52.402;6.608;2023-08-06T02:20:31;6.43;;;3.80;;
80578;SDS011;69939;52.402;6.608;2023-08-06T02:23:00;4.43;;;3.95;;
80578;SDS011;69939;52.402;6.608;2023-08-06T02:25:32;4.80;;;3.88;;
80578;SDS011;69939;52.402;6.608;2023-08-06T02:28:01;5.18;;;3.80;;
80578;SDS011;69939;52.402;6.608;2023-08-06T02:30:31;8.73;;;4.57;;
80578;SDS011;69939;52.402;6.608;2023-08-06T02:33:06;6.10;;;4.35;;
80578;SDS011;69939;52.402;6.608;2023-08-06T02:35:36;4.28;;;3.42;;
80578;SDS011;69939;52.402;6.608;2023-08-06T02:38:05;5.85;;;4.22;;
80578;SDS011;69939;52.402;6.608;2023-08-06T02:43:14;5.95;;;4.63;;
80578;SDS011;69939;52.402;6.608;2023-08-06T02:45:44;6.63;;;4.43;;
80578;SDS011;69939;52.402;6.608;2023-08-06T02:48:13;7.60;;;5.25;;
80578;SDS011;69939;52.402;6.608;2023-08-06T02:50:43;8.88;;;6.05;;
80578;SDS011;69939;52.402;6.608;2023-08-06T02:53:12;9.02;;;6.13;;
80578;SDS011;69939;52.402;6.608;2023-08-06T02:55:47;10.60;;;6.10;;
80578;SDS011;69939;52.402;6.608;2023-08-06T02:58:17;10.52;;;6.35;;
80578;SDS011;69939;52.402;6.608;2023-08-06T03:00:58;8.82;;;6.00;;
80578;SDS011;69939;52.402;6.608;2023-08-06T03:03:32;8.45;;;6.05;;
80578;SDS011;69939;52.402;6.608;2023-08-06T03:06:03;8.18;;;6.22;;
80578;SDS011;69939;52.402;6.608;2023-08-06T03:08:33;9.50;;;6.32;;
80578;SDS011;69939;52.402;6.608;2023-08-06T03:11:05;7.60;;;5.35;;
80578;SDS011;69939;52.402;6.608;2023-08-06T03:13:34;8.98;;;6.18;;
80578;SDS011;69939;52.402;6.608;2023-08-06T03:16:03;7.88;;;6.00;;
80578;SDS011;69939;52.402;6.608;2023-08-06T03:18:33;9.20;;;6.03;;
80578;SDS011;69939;52.402;6.608;2023-08-06T03:21:03;7.63;;;5.65;;
80578;SDS011;69939;52.402;6.608;2023-08-06T03:23:33;6.90;;;5.60;;
80578;SDS011;69939;52.402;6.608;2023-08-06T03:26:05;6.53;;;5.18;;
80578;SDS011;69939;52.402;6.608;2023-08-06T03:28:35;7.43;;;5.30;;
80578;SDS011;69939;52.402;6.608;2023-08-06T03:31:04;9.23;;;5.90;;
80578;SDS011;69939;52.402;6.608;2023-08-06T03:33:34;7.95;;;5.53;;
80578;SDS011;69939;52.402;6.608;2023-08-06T03:36:04;6.45;;;5.72;;
80578;SDS011;69939;52.402;6.608;2023-08-06T03:38:34;8.10;;;6.18;;
80578;SDS011;69939;52.402;6.608;2023-08-06T03:41:06;7.50;;;5.65;;
80578;SDS011;69939;52.402;6.608;2023-08-06T03:43:36;5.60;;;4.65;;
80578;SDS011;69939;52.402;6.608;2023-08-06T03:46:06;6.10;;;5.32;;
80578;SDS011;69939;52.402;6.608;2023-08-06T03:48:35;9.07;;;5.47;;
80578;SDS011;69939;52.402;6.608;2023-08-06T03:51:04;7.35;;;5.35;;
80578;SDS011;69939;52.402;6.608;2023-08-06T03:56:06;7.95;;;4.75;;
80578;SDS011;69939;52.402;6.608;2023-08-06T03:58:36;8.15;;;5.97;;
80578;SDS011;69939;52.402;6.608;2023-08-06T04:01:06;9.65;;;7.22;;
80578;SDS011;69939;52.402;6.608;2023-08-06T04:06:04;9.88;;;6.25;;
80578;SDS011;69939;52.402;6.608;2023-08-06T04:08:34;9.45;;;7.05;;
80578;SDS011;69939;52.402;6.608;2023-08-06T04:11:05;10.85;;;7.88;;
80578;SDS011;69939;52.402;6.608;2023-08-06T04:13:37;11.27;;;8.25;;
80578;SDS011;69939;52.402;6.608;2023-08-06T04:16:06;9.13;;;7.30;;
80578;SDS011;69939;52.402;6.608;2023-08-06T04:18:36;10.45;;;7.50;;
80578;SDS011;69939;52.402;6.608;2023-08-06T04:21:05;9.20;;;6.30;;
80578;SDS011;69939;52.402;6.608;2023-08-06T04:23:35;11.90;;;9.40;;
80578;SDS011;69939;52.402;6.608;2023-08-06T04:26:09;12.13;;;8.10;;
80578;SDS011;69939;52.402;6.608;2023-08-06T04:28:38;14.30;;;7.63;;
80578;SDS011;69939;52.402;6.608;2023-08-06T04:31:08;12.30;;;8.13;;
80578;SDS011;69939;52.402;6.608;2023-08-06T04:36:06;9.73;;;6.65;;
80578;SDS011;69939;52.402;6.608;2023-08-06T04:38:35;16.23;;;7.80;;
80578;SDS011;69939;52.402;6.608;2023-08-06T04:41:09;7.80;;;6.00;;
80578;SDS011;69939;52.402;6.608;2023-08-06T04:43:38;6.90;;;5.70;;
80578;SDS011;69939;52.402;6.608;2023-08-06T04:48:36;7.78;;;5.80;;
80578;SDS011;69939;52.402;6.608;2023-08-06T04:51:05;7.95;;;5.55;;
80578;SDS011;69939;52.402;6.608;2023-08-06T04:53:34;8.23;;;5.43;;
80578;SDS011;69939;52.402;6.608;2023-08-06T04:56:03;7.25;;;5.50;;
80578;SDS011;69939;52.402;6.608;2023-08-06T04:58:35;6.32;;;5.47;;
80578;SDS011;69939;52.402;6.608;2023-08-06T05:01:04;7.95;;;5.95;;
80578;SDS011;69939;52.402;6.608;2023-08-06T05:03:33;7.90;;;5.47;;
80578;SDS011;69939;52.402;6.608;2023-08-06T05:06:03;7.35;;;5.07;;
80578;SDS011;69939;52.402;6.608;2023-08-06T05:08:32;6.80;;;5.40;;
80578;SDS011;69939;52.402;6.608;2023-08-06T05:11:01;6.60;;;5.53;;
80578;SDS011;69939;52.402;6.608;2023-08-06T05:13:30;4.95;;;3.67;;
80578;SDS011;69939;52.402;6.608;2023-08-06T05:16:02;7.53;;;5.00;;
80578;SDS011;69939;52.402;6.608;2023-08-06T05:18:32;6.35;;;5.47;;
80578;SDS011;69939;52.402;6.608;2023-08-06T05:21:02;7.85;;;5.38;;
80578;SDS011;69939;52.402;6.608;2023-08-06T05:23:32;8.47;;;5.43;;
80578;SDS011;69939;52.402;6.608;2023-08-06T05:26:01;6.95;;;5.25;;
80578;SDS011;69939;52.402;6.608;2023-08-06T05:28:33;6.03;;;5.35;;
80578;SDS011;69939;52.402;6.608;2023-08-06T05:31:06;7.82;;;5.80;;
80578;SDS011;69939;52.402;6.608;2023-08-06T05:33:35;10.52;;;5.63;;
80578;SDS011;69939;52.402;6.608;2023-08-06T05:38:33;6.97;;;4.55;;
80578;SDS011;69939;52.402;6.608;2023-08-06T05:41:02;7.13;;;5.50;;
80578;SDS011;69939;52.402;6.608;2023-08-06T05:46:00;6.20;;;5.18;;
80578;SDS011;69939;52.402;6.608;2023-08-06T05:51:01;7.93;;;5.07;;
80578;SDS011;69939;52.402;6.608;2023-08-06T05:53:33;7.90;;;5.63;;
80578;SDS011;69939;52.402;6.608;2023-08-06T05:56:03;7.28;;;6.05;;
80578;SDS011;69939;52.402;6.608;2023-08-06T05:58:32;7.82;;;5.28;;
80578;SDS011;69939;52.402;6.608;2023-08-06T06:01:01;11.82;;;5.75;;
80578;SDS011;69939;52.402;6.608;2023-08-06T06:03:33;7.63;;;5.72;;
80578;SDS011;69939;52.402;6.608;2023-08-06T06:06:03;7.80;;;5.60;;
80578;SDS011;69939;52.402;6.608;2023-08-06T06:08:32;8.07;;;5.20;;
80578;SDS011;69939;52.402;6.608;2023-08-06T06:11:01;7.18;;;6.13;;
80578;SDS011;69939;52.402;6.608;2023-08-06T06:13:30;7.35;;;5.85;;
80578;SDS011;69939;52.402;6.608;2023-08-06T06:15:59;7.82;;;5.90;;
80578;SDS011;69939;52.402;6.608;2023-08-06T06:18:34;6.82;;;5.60;;
80578;SDS011;69939;52.402;6.608;2023-08-06T06:21:03;7.00;;;5.70;;
80578;SDS011;69939;52.402;6.608;2023-08-06T06:23:34;8.10;;;6.05;;
80578;SDS011;69939;52.402;6.608;2023-08-06T06:28:32;7.47;;;4.60;;
80578;SDS011;69939;52.402;6.608;2023-08-06T06:31:03;5.75;;;5.15;;
80578;SDS011;69939;52.402;6.608;2023-08-06T06:33:35;6.05;;;4.82;;
80578;SDS011;69939;52.402;6.608;2023-08-06T06:36:06;6.13;;;5.20;;
80578;SDS011;69939;52.402;6.608;2023-08-06T06:38:35;7.20;;;5.47;;
80578;SDS011;69939;52.402;6.608;2023-08-06T06:41:05;8.57;;;5.57;;
80578;SDS011;69939;52.402;6.608;2023-08-06T06:43:34;7.50;;;5.70;;
80578;SDS011;69939;52.402;6.608;2023-08-06T06:46:05;6.53;;;5.43;;
80578;SDS011;69939;52.402;6.608;2023-08-06T06:48:37;7.63;;;5.07;;
80578;SDS011;69939;52.402;6.608;2023-08-06T06:51:06;8.30;;;5.97;;
80578;SDS011;69939;52.402;6.608;2023-08-06T06:53:35;6.72;;;4.93;;
80578;SDS011;69939;52.402;6.608;2023-08-06T06:56:04;7.63;;;5.72;;
80578;SDS011;69939;52.402;6.608;2023-08-06T06:58:34;6.00;;;4.97;;
80578;SDS011;69939;52.402;6.608;2023-08-06T07:01:03;6.43;;;5.72;;
80578;SDS011;69939;52.402;6.608;2023-08-06T07:03:37;7.38;;;5.95;;
80578;SDS011;69939;52.402;6.608;2023-08-06T07:06:06;7.97;;;6.07;;
80578;SDS011;69939;52.402;6.608;2023-08-06T07:08:37;5.65;;;4.82;;
80578;SDS011;69939;52.402;6.608;2023-08-06T07:11:06;5.68;;;4.93;;
80578;SDS011;69939;52.402;6.608;2023-08-06T07:13:35;9.32;;;6.10;;
80578;SDS011;69939;52.402;6.608;2023-08-06T07:16:05;7.50;;;5.20;;
80578;SDS011;69939;52.402;6.608;2023-08-06T07:18:37;7.97;;;6.00;;
80578;SDS011;69939;52.402;6.608;2023-08-06T07:21:06;8.38;;;6.25;;
80578;SDS011;69939;52.402;6.608;2023-08-06T07:26:04;9.15;;;5.10;;
80578;SDS011;69939;52.402;6.608;2023-08-06T07:28:34;9.35;;;6.30;;
80578;SDS011;69939;52.402;6.608;2023-08-06T07:31:03;7.65;;;6.22;;
80578;SDS011;69939;52.402;6.608;2023-08-06T07:33:32;7.43;;;5.93;;
80578;SDS011;69939;52.402;6.608;2023-08-06T07:36:10;9.75;;;6.78;;
80578;SDS011;69939;52.402;6.608;2023-08-06T07:38:41;8.20;;;6.63;;
80578;SDS011;69939;52.402;6.608;2023-08-06T07:41:11;7.30;;;6.07;;
80578;SDS011;69939;52.402;6.608;2023-08-06T07:46:09;7.53;;;5.93;;
80578;SDS011;69939;52.402;6.608;2023-08-06T07:48:38;7.75;;;5.90;;
80578;SDS011;69939;52.402;6.608;2023-08-06T07:51:10;8.52;;;6.57;;
80578;SDS011;69939;52.402;6.608;2023-08-06T07:53:39;9.38;;;6.47;;
80578;SDS011;69939;52.402;6.608;2023-08-06T07:56:09;8.43;;;6.82;;
80578;SDS011;69939;52.402;6.608;2023-08-06T07:58:38;10.60;;;7.47;;
80578;SDS011;69939;52.402;6.608;2023-08-06T08:03:36;9.75;;;6.85;;
80578;SDS011;69939;52.402;6.608;2023-08-06T08:06:05;8.32;;;6.07;;
80578;SDS011;69939;52.402;6.608;2023-08-06T08:08:37;12.85;;;6.82;;
80578;SDS011;69939;52.402;6.608;2023-08-06T08:11:06;7.95;;;6.57;;
80578;SDS011;69939;52.402;6.608;2023-08-06T08:13:35;9.70;;;6.30;;
80578;SDS011;69939;52.402;6.608;2023-08-06T08:16:05;8.07;;;5.03;;
80578;SDS011;69939;52.402;6.608;2023-08-06T08:18:34;7.97;;;6.05;;
80578;SDS011;69939;52.402;6.608;2023-08-06T08:21:03;9.23;;;6.40;;
80578;SDS011;69939;52.402;6.608;2023-08-06T08:26:04;8.85;;;6.22;;
80578;SDS011;69939;52.402;6.608;2023-08-06T08:28:33;7.35;;;5.97;;
80578;SDS011;69939;52.402;6.608;2023-08-06T08:31:02;7.22;;;6.15;;
80578;SDS011;69939;52.402;6.608;2023-08-06T08:33:31;7.20;;;5.88;;
80578;SDS011;69939;52.402;6.608;2023-08-06T08:36:01;8.13;;;6.70;;
80578;SDS011;69939;52.402;6.608;2023-08-06T08:38:33;7.25;;;6.47;;
80578;SDS011;69939;52.402;6.608;2023-08-06T08:41:05;7.57;;;6.35;;
80578;SDS011;69939;52.402;6.608;2023-08-06T08:43:35;7.95;;;6.15;;
80578;SDS011;69939;52.402;6.608;2023-08-06T08:46:05;10.48;;;5.30;;
80578;SDS011;69939;52.402;6.608;2023-08-06T08:48:37;9.40;;;5.18;;
80578;SDS011;69939;52.402;6.608;2023-08-06T08:51:06;4.93;;;4.22;;
80578;SDS011;69939;52.402;6.608;2023-08-06T08:53:37;6.35;;;5.53;;
80578;SDS011;69939;52.402;6.608;2023-08-06T08:56:10;7.25;;;6.30;;
80578;SDS011;69939;52.402;6.608;2023-08-06T08:58:41;5.20;;;4.65;;
80578;SDS011;69939;52.402;6.608;2023-08-06T09:01:10;7.03;;;5.88;;
80578;SDS011;69939;52.402;6.608;2023-08-06T09:03:41;8.13;;;5.78;;
80578;SDS011;69939;52.402;6.608;2023-08-06T09:06:13;6.70;;;5.03;;
80578;SDS011;69939;52.402;6.608;2023-08-06T09:08:47;6.40;;;5.80;;
80578;SDS011;69939;52.402;6.608;2023-08-06T09:11:27;5.30;;;4.90;;
80578;SDS011;69939;52.402;6.608;2023-08-06T09:14:05;6.63;;;6.05;;
80578;SDS011;69939;52.402;6.608;2023-08-06T09:16:35;4.68;;;4.25;;
80578;SDS011;69939;52.402;6.608;2023-08-06T09:19:07;5.40;;;4.82;;
80578;SDS011;69939;52.402;6.608;2023-08-06T09:21:37;6.65;;;4.88;;
80578;SDS011;69939;52.402;6.608;2023-08-06T09:24:07;5.50;;;5.10;;
80578;SDS011;69939;52.402;6.608;2023-08-06T09:26:41;5.75;;;5.35;;
80578;SDS011;69939;52.402;6.608;2023-08-06T09:29:13;6.72;;;5.93;;
80578;SDS011;69939;52.402;6.608;2023-08-06T09:31:43;5.65;;;5.25;;
80578;SDS011;69939;52.402;6.608;2023-08-06T09:34:15;5.35;;;4.95;;
80578;SDS011;69939;52.402;6.608;2023-08-06T09:36:46;5.35;;;4.85;;
80578;SDS011;69939;52.402;6.608;2023-08-06T09:39:17;5.47;;;4.50;;
80578;SDS011;69939;52.402;6.608;2023-08-06T09:41:52;5.18;;;4.68;;
80578;SDS011;69939;52.402;6.608;2023-08-06T09:44:27;5.97;;;5.45;;
80578;SDS011;69939;52.402;6.608;2023-08-06T09:47:01;4.93;;;4.53;;
80578;SDS011;69939;52.402;6.608;2023-08-06T09:49:40;5.43;;;4.93;;
80578;SDS011;69939;52.402;6.608;2023-08-06T09:52:11;6.00;;;5.45;;
80578;SDS011;69939;52.402;6.608;2023-08-06T09:54:41;6.25;;;5.28;;
80578;SDS011;69939;52.402;6.608;2023-08-06T09:57:15;6.10;;;5.50;;
80578;SDS011;69939;52.402;6.608;2023-08-06T09:59:44;5.57;;;5.07;;
80578;SDS011;69939;52.402;6.608;2023-08-06T10:02:14;9.07;;;5.50;;
80578;SDS011;69939;52.402;6.608;2023-08-06T10:04:44;4.85;;;4.35;;
80578;SDS011;69939;52.402;6.608;2023-08-06T10:07:14;6.70;;;6.00;;
80578;SDS011;69939;52.402;6.608;2023-08-06T10:09:43;7.38;;;6.55;;
80578;SDS011;69939;52.402;6.608;2023-08-06T10:12:15;7.80;;;6.28;;
80578;SDS011;69939;52.402;6.608;2023-08-06T10:14:47;7.35;;;6.68;;
80578;SDS011;69939;52.402;6.608;2023-08-06T10:17:18;7.03;;;6.30;;
80578;SDS011;69939;52.402;6.608;2023-08-06T10:19:48;5.88;;;5.38;;
80578;SDS011;69939;52.402;6.608;2023-08-06T10:22:20;9.32;;;8.52;;
80578;SDS011;69939;52.402;6.608;2023-08-06T10:24:50;8.63;;;7.78;;
80578;SDS011;69939;52.402;6.608;2023-08-06T10:27:28;11.55;;;8.70;;
80578;SDS011;69939;52.402;6.608;2023-08-06T10:32:50;11.68;;;9.25;;
80578;SDS011;69939;52.402;6.608;2023-08-06T10:35:34;7.15;;;5.43;;
80578;SDS011;69939;52.402;6.608;2023-08-06T10:38:07;8.95;;;7.47;;
80578;SDS011;69939;52.402;6.608;2023-08-06T10:40:39;10.45;;;9.35;;
80578;SDS011;69939;52.402;6.608;2023-08-06T10:43:24;8.45;;;7.38;;
80578;SDS011;69939;52.402;6.608;2023-08-06T10:45:55;10.60;;;8.80;;
80578;SDS011;69939;52.402;6.608;2023-08-06T10:48:33;8.15;;;7.30;;
80578;SDS011;69939;52.402;6.608;2023-08-06T10:51:07;8.70;;;6.17;;
80578;SDS011;69939;52.402;6.608;2023-08-06T10:53:37;7.88;;;6.68;;
80578;SDS011;69939;52.402;6.608;2023-08-06T10:56:12;8.55;;;7.75;;
80578;SDS011;69939;52.402;6.608;2023-08-06T10:58:44;9.10;;;6.55;;
80578;SDS011;69939;52.402;6.608;2023-08-06T11:01:16;7.72;;;6.57;;
80578;SDS011;69939;52.402;6.608;2023-08-06T11:03:47;8.30;;;7.28;;
80578;SDS011;69939;52.402;6.608;2023-08-06T11:06:18;7.22;;;6.40;;
80578;SDS011;69939;52.402;6.608;2023-08-06T11:08:50;7.28;;;6.57;;
80578;SDS011;69939;52.402;6.608;2023-08-06T11:11:22;6.47;;;5.63;;
80578;SDS011;69939;52.402;6.608;2023-08-06T11:13:54;6.68;;;5.53;;
80578;SDS011;69939;52.402;6.608;2023-08-06T11:16:27;6.43;;;5.90;;
80578;SDS011;69939;52.402;6.608;2023-08-06T11:19:03;6.30;;;5.75;;
80578;SDS011;69939;52.402;6.608;2023-08-06T11:21:35;4.38;;;3.83;;
80578;SDS011;69939;52.402;6.608;2023-08-06T11:24:05;6.13;;;5.53;;
80578;SDS011;69939;52.402;6.608;2023-08-06T11:26:34;6.10;;;5.60;;
80578;SDS011;69939;52.402;6.608;2023-08-06T11:29:08;5.22;;;4.35;;
80578;SDS011;69939;52.402;6.608;2023-08-06T11:31:37;6.57;;;5.20;;
80578;SDS011;69939;52.402;6.608;2023-08-06T11:34:06;6.20;;;5.30;;
80578;SDS011;69939;52.402;6.608;2023-08-06T11:36:40;8.10;;;4.97;;
80578;SDS011;69939;52.402;6.608;2023-08-06T11:39:09;7.43;;;5.15;;
80578;SDS011;69939;52.402;6.608;2023-08-06T11:41:39;6.60;;;4.80;;
80578;SDS011;69939;52.402;6.608;2023-08-06T11:44:13;6.20;;;5.28;;
80578;SDS011;69939;52.402;6.608;2023-08-06T11:46:51;4.40;;;3.92;;
80578;SDS011;69939;52.402;6.608;2023-08-06T11:49:25;4.78;;;4.30;;
80578;SDS011;69939;52.402;6.608;2023-08-06T11:52:10;6.40;;;4.53;;
80578;SDS011;69939;52.402;6.608;2023-08-06T11:54:44;4.63;;;4.13;;
80578;SDS011;69939;52.402;6.608;2023-08-06T11:57:15;4.72;;;4.32;;
80578;SDS011;69939;52.402;6.608;2023-08-06T11:59:47;4.95;;;4.45;;
80578;SDS011;69939;52.402;6.608;2023-08-06T12:02:16;5.45;;;4.53;;
80578;SDS011;69939;52.402;6.608;2023-08-06T12:05:00;5.00;;;4.32;;
80578;SDS011;69939;52.402;6.608;2023-08-06T12:07:36;4.22;;;3.83;;
80578;SDS011;69939;52.402;6.608;2023-08-06T12:10:07;4.88;;;3.95;;
80578;SDS011;69939;52.402;6.608;2023-08-06T12:12:37;5.20;;;3.65;;
80578;SDS011;69939;52.402;6.608;2023-08-06T12:15:09;4.28;;;3.88;;
80578;SDS011;69939;52.402;6.608;2023-08-06T12:17:40;4.03;;;3.20;;
80578;SDS011;69939;52.402;6.608;2023-08-06T12:20:09;5.25;;;4.75;;
80578;SDS011;69939;52.402;6.608;2023-08-06T12:22:39;4.18;;;3.63;;
80578;SDS011;69939;52.402;6.608;2023-08-06T12:25:09;5.00;;;4.05;;
80578;SDS011;69939;52.402;6.608;2023-08-06T12:27:40;4.38;;;3.55;;
80578;SDS011;69939;52.402;6.608;2023-08-06T12:30:13;5.70;;;4.03;;
80578;SDS011;69939;52.402;6.608;2023-08-06T12:32:43;3.83;;;2.85;;
80578;SDS011;69939;52.402;6.608;2023-08-06T12:35:12;4.65;;;4.10;;
80578;SDS011;69939;52.402;6.608;2023-08-06T12:37:41;3.28;;;2.70;;
80578;SDS011;69939;52.402;6.608;2023-08-06T12:40:11;4.38;;;3.97;;
80578;SDS011;69939;52.402;6.608;2023-08-06T12:42:40;5.15;;;4.72;;
80578;SDS011;69939;52.402;6.608;2023-08-06T12:45:09;4.05;;;3.65;;
80578;SDS011;69939;52.402;6.608;2023-08-06T12:47:42;4.03;;;3.55;;
80578;SDS011;69939;52.402;6.608;2023-08-06T12:50:11;2.80;;;2.53;;
80578;SDS011;69939;52.402;6.608;2023-08-06T12:52:42;3.42;;;3.13;;
80578;SDS011;69939;52.402;6.608;2023-08-06T12:55:11;2.50;;;2.10;;
80578;SDS011;69939;52.402;6.608;2023-08-06T12:57:40;4.85;;;2.85;;
80578;SDS011;69939;52.402;6.608;2023-08-06T13:00:10;3.83;;;3.40;;
80578;SDS011;69939;52.402;6.608;2023-08-06T13:02:42;3.00;;;2.78;;
80578;SDS011;69939;52.402;6.608;2023-08-06T13:05:11;4.53;;;3.22;;
80578;SDS011;69939;52.402;6.608;2023-08-06T13:07:40;4.93;;;3.15;;
80578;SDS011;69939;52.402;6.608;2023-08-06T13:10:10;4.57;;;3.42;;
80578;SDS011;69939;52.402;6.608;2023-08-06T13:12:40;4.15;;;3.15;;
80578;SDS011;69939;52.402;6.608;2023-08-06T13:15:09;3.38;;;2.63;;
80578;SDS011;69939;52.402;6.608;2023-08-06T13:17:42;3.03;;;2.80;;
80578;SDS011;69939;52.402;6.608;2023-08-06T13:20:11;3.22;;;2.53;;
80578;SDS011;69939;52.402;6.608;2023-08-06T13:22:40;2.83;;;2.53;;
80578;SDS011;69939;52.402;6.608;2023-08-06T13:25:11;2.85;;;2.55;;
80578;SDS011;69939;52.402;6.608;2023-08-06T13:27:42;2.58;;;2.30;;
80578;SDS011;69939;52.402;6.608;2023-08-06T13:30:11;2.53;;;2.33;;
80578;SDS011;69939;52.402;6.608;2023-08-06T13:32:43;3.30;;;2.50;;
80578;SDS011;69939;52.402;6.608;2023-08-06T13:35:13;2.42;;;2.22;;
80578;SDS011;69939;52.402;6.608;2023-08-06T13:37:43;2.78;;;2.40;;
80578;SDS011;69939;52.402;6.608;2023-08-06T13:40:13;2.88;;;2.33;;
80578;SDS011;69939;52.402;6.608;2023-08-06T13:42:42;2.72;;;2.20;;
80578;SDS011;69939;52.402;6.608;2023-08-06T13:45:11;2.55;;;2.35;;
80578;SDS011;69939;52.402;6.608;2023-08-06T13:47:43;3.03;;;2.53;;
80578;SDS011;69939;52.402;6.608;2023-08-06T13:50:12;3.35;;;2.53;;
80578;SDS011;69939;52.402;6.608;2023-08-06T13:52:50;1.73;;;1.63;;
80578;SDS011;69939;52.402;6.608;2023-08-06T13:55:20;2.47;;;2.15;;
80578;SDS011;69939;52.402;6.608;2023-08-06T13:57:52;2.22;;;1.80;;
80578;SDS011;69939;52.402;6.608;2023-08-06T14:00:21;1.63;;;1.33;;
80578;SDS011;69939;52.402;6.608;2023-08-06T14:02:53;1.60;;;1.45;;
80578;SDS011;69939;52.402;6.608;2023-08-06T14:05:23;4.30;;;1.48;;
80578;SDS011;69939;52.402;6.608;2023-08-06T14:07:53;2.22;;;1.70;;
80578;SDS011;69939;52.402;6.608;2023-08-06T14:10:22;1.52;;;0.82;;
80578;SDS011;69939;52.402;6.608;2023-08-06T14:12:53;1.40;;;0.80;;
80578;SDS011;69939;52.402;6.608;2023-08-06T14:15:22;3.95;;;1.40;;
80578;SDS011;69939;52.402;6.608;2023-08-06T14:17:54;2.67;;;1.52;;
80578;SDS011;69939;52.402;6.608;2023-08-06T14:20:23;2.25;;;1.50;;
80578;SDS011;69939;52.402;6.608;2023-08-06T14:22:52;3.00;;;2.22;;
80578;SDS011;69939;52.402;6.608;2023-08-06T14:25:22;1.67;;;1.50;;
80578;SDS011;69939;52.402;6.608;2023-08-06T14:27:51;8.75;;;2.38;;
80578;SDS011;69939;52.402;6.608;2023-08-06T14:30:20;3.15;;;1.73;;
80578;SDS011;69939;52.402;6.608;2023-08-06T14:35:21;3.47;;;2.30;;
80578;SDS011;69939;52.402;6.608;2023-08-06T14:37:51;4.60;;;2.70;;
80578;SDS011;69939;52.402;6.608;2023-08-06T14:40:20;4.90;;;2.50;;
80578;SDS011;69939;52.402;6.608;2023-08-06T14:42:50;3.30;;;2.58;;
80578;SDS011;69939;52.402;6.608;2023-08-06T14:45:20;2.88;;;2.28;;
80578;SDS011;69939;52.402;6.608;2023-08-06T14:47:49;3.75;;;3.17;;
80578;SDS011;69939;52.402;6.608;2023-08-06T14:50:20;4.22;;;2.95;;
80578;SDS011;69939;52.402;6.608;2023-08-06T14:52:50;5.00;;;2.78;;
80578;SDS011;69939;52.402;6.608;2023-08-06T14:55:23;4.20;;;2.72;;
80578;SDS011;69939;52.402;6.608;2023-08-06T14:57:53;4.15;;;3.38;;
80578;SDS011;69939;52.402;6.608;2023-08-06T15:00:22;5.53;;;3.35;;
80578;SDS011;69939;52.402;6.608;2023-08-06T15:02:51;4.95;;;3.53;;
80578;SDS011;69939;52.402;6.608;2023-08-06T15:07:52;4.60;;;3.60;;
80578;SDS011;69939;52.402;6.608;2023-08-06T15:10:23;5.38;;;3.95;;
80578;SDS011;69939;52.402;6.608;2023-08-06T15:12:52;5.60;;;4.13;;
80578;SDS011;69939;52.402;6.608;2023-08-06T15:17:51;4.75;;;3.67;;
80578;SDS011;69939;52.402;6.608;2023-08-06T15:20:24;4.60;;;3.85;;
80578;SDS011;69939;52.402;6.608;2023-08-06T15:22:54;5.00;;;3.63;;
80578;SDS011;69939;52.402;6.608;2023-08-06T15:27:52;5.38;;;3.47;;
80578;SDS011;69939;52.402;6.608;2023-08-06T15:30:21;4.32;;;3.55;;
80578;SDS011;69939;52.402;6.608;2023-08-06T15:32:51;5.03;;;3.75;;
80578;SDS011;69939;52.402;6.608;2023-08-06T15:35:20;4.03;;;3.00;;
80578;SDS011;69939;52.402;6.608;2023-08-06T15:37:51;4.75;;;3.45;;
80578;SDS011;69939;52.402;6.608;2023-08-06T15:40:21;3.70;;;3.10;;
80578;SDS011;69939;52.402;6.608;2023-08-06T15:42:50;4.30;;;3.33;;
80578;SDS011;69939;52.402;6.608;2023-08-06T15:45:19;3.63;;;3.33;;
80578;SDS011;69939;52.402;6.608;2023-08-06T15:47:48;3.55;;;2.38;;
80578;SDS011;69939;52.402;6.608;2023-08-06T15:50:18;3.05;;;2.72;;
80578;SDS011;69939;52.402;6.608;2023-08-06T15:52:47;3.85;;;3.17;;
80578;SDS011;69939;52.402;6.608;2023-08-06T15:55:19;3.53;;;3.22;;
80578;SDS011;69939;52.402;6.608;2023-08-06T15:57:49;4.15;;;2.92;;
80578;SDS011;69939;52.402;6.608;2023-08-06T16:00:18;4.50;;;3.30;;
80578;SDS011;69939;52.402;6.608;2023-08-06T16:02:47;4.15;;;2.95;;
80578;SDS011;69939;52.402;6.608;2023-08-06T16:05:16;3.40;;;2.95;;
80578;SDS011;69939;52.402;6.608;2023-08-06T16:07:46;5.15;;;3.10;;
80578;SDS011;69939;52.402;6.608;2023-08-06T16:10:21;2.75;;;2.45;;
80578;SDS011;69939;52.402;6.608;2023-08-06T16:12:50;3.17;;;2.60;;